Time;durP1;ratioP1;P1;durP2;ratioP2;P2;SDS_P1;SDS_P2;PMS_P1;PMS_P2;Temp;Humidity;BMP_temperature;BMP_pressure;BME280_temperature;BME280_humidity;BME280_pressure;Samples;Min_cycle;Max_cycle;Signal;HPM_P1;HPM_P2
2023/01/17 00:01:28;;;;;;;0.65;0.10;;;3.90;99.90;;;;;;5034406;28;20036;-65
2023/01/17 00:12:10;;;;;;;1.52;0.40;;;3.60;99.90;;;;;;5042556;28;20403;-65
2023/01/17 00:14:35;;;;;;;3.87;0.40;;;3.50;99.90;;;;;;5035938;28;20099;-66
2023/01/17 00:17:01;;;;;;;4.73;0.50;;;3.50;99.90;;;;;;5037252;28;20037;-65
2023/01/17 01:44:49;;;;;;;;;;;;;;;;;;;;;
2023/01/17 01:52:18;;;;;;;1.65;0.55;;;3.30;99.90;;;;;;4936647;29;20073;-86
2023/01/17 02:02:56;;;;;;;;;;;;;;;;;;;;;
2023/01/17 02:06:30;;;;;;;0.85;0.28;;;3.40;99.90;;;;;;4964895;28;20054;-86
2023/01/17 02:09:48;;;;;;;0.80;0.13;;;3.40;99.90;;;;;;4932368;28;20591;-87
2023/01/17 02:12:30;;;;;;;4.15;0.30;;;3.40;99.90;;;;;;4961899;23;20039;-69
2023/01/17 02:14:57;;;;;;;6.75;1.00;;;3.40;99.90;;;;;;5039109;28;20362;-69
2023/01/17 02:17:34;;;;;;;3.15;0.73;;;3.40;99.90;;;;;;5036077;28;20060;-69
2023/01/17 02:20:24;;;;;;;3.83;0.40;;;3.50;99.90;;;;;;5044935;28;20070;-69
2023/01/17 02:23:14;;;;;;;3.92;0.50;;;3.50;99.90;;;;;;5044246;28;20052;-69
2023/01/17 02:26:01;;;;;;;3.05;0.45;;;3.50;99.90;;;;;;5044512;28;20364;-68
2023/01/17 02:28:26;;;;;;;0.60;0.20;;;3.50;99.90;;;;;;5035441;28;20037;-69
2023/01/17 02:31:33;;;;;;;3.80;0.50;;;3.40;99.90;;;;;;5042029;28;20121;-69
2023/01/17 02:34:38;;;;;;;3.50;0.43;;;3.50;99.90;;;;;;5044461;28;20415;-69
2023/01/17 02:37:13;;;;;;;1.75;0.43;;;3.40;99.90;;;;;;5038763;28;20057;-69
2023/01/17 02:39:50;;;;;;;3.33;0.35;;;3.30;99.90;;;;;;5045107;28;20060;-68
2023/01/17 02:42:17;;;;;;;3.53;0.40;;;3.10;99.90;;;;;;5036863;28;20045;-74
2023/01/17 02:44:43;;;;;;;1.30;0.40;;;3.10;99.90;;;;;;5037203;28;20063;-68
2023/01/17 02:47:39;;;;;;;5.70;0.35;;;3.00;99.90;;;;;;5046534;28;20041;-68
2023/01/17 02:50:26;;;;;;;1.25;0.57;;;3.00;99.90;;;;;;5043181;28;20053;-73
2023/01/17 02:53:24;;;;;;;1.95;0.47;;;2.90;99.90;;;;;;5054065;28;20131;-67
2023/01/17 02:55:52;;;;;;;1.30;0.30;;;3.00;99.90;;;;;;5048984;28;20514;-68
2023/01/17 02:58:36;;;;;;;4.03;0.60;;;3.00;99.90;;;;;;5040889;28;20069;-68
2023/01/17 03:01:10;;;;;;;3.53;0.45;;;3.10;99.90;;;;;;5056118;28;20032;-68
2023/01/17 03:03:42;;;;;;;1.05;0.30;;;3.10;99.90;;;;;;5066299;28;20032;-68
2023/01/17 03:06:26;;;;;;;3.33;0.50;;;3.10;99.90;;;;;;5051438;28;20041;-68
2023/01/17 03:08:53;;;;;;;2.63;0.30;;;3.10;99.90;;;;;;5056293;28;20177;-68
2023/01/17 03:11:19;;;;;;;0.52;0.20;;;3.10;99.90;;;;;;5050767;28;20391;-68
2023/01/17 03:13:44;;;;;;;1.17;0.20;;;3.10;99.90;;;;;;5049481;28;20451;-68
2023/01/17 03:16:17;;;;;;;3.23;0.30;;;3.10;99.90;;;;;;5031401;28;20089;-68
2023/01/17 03:18:43;;;;;;;4.28;1.17;;;3.10;99.90;;;;;;5044097;28;20048;-68
2023/01/17 03:21:09;;;;;;;2.25;0.28;;;3.10;99.90;;;;;;5042550;28;20127;-68
2023/01/17 03:23:35;;;;;;;1.30;0.50;;;3.10;99.90;;;;;;5047271;28;20132;-68
2023/01/17 03:26:01;;;;;;;2.87;0.67;;;3.10;99.90;;;;;;5043191;28;20375;-68
2023/01/17 03:28:26;;;;;;;5.30;0.60;;;3.20;99.90;;;;;;5045831;28;20044;-68
2023/01/17 03:30:52;;;;;;;5.07;0.50;;;3.10;99.90;;;;;;5031264;28;20093;-68
2023/01/17 03:33:18;;;;;;;4.17;0.30;;;3.20;99.90;;;;;;5056451;28;20043;-68
2023/01/17 03:35:44;;;;;;;5.13;0.43;;;3.20;99.90;;;;;;5040955;28;20049;-68
2023/01/17 03:38:10;;;;;;;;;;;3.20;99.90;;;;;;5040161;28;20033;-69
2023/01/17 03:40:36;;;;;;;3.90;0.50;;;3.30;99.90;;;;;;5042858;28;20026;-68
2023/01/17 03:43:01;;;;;;;3.43;0.20;;;3.30;99.90;;;;;;5049796;28;20525;-68
2023/01/17 03:45:27;;;;;;;2.47;0.30;;;3.40;99.90;;;;;;5040598;28;20042;-68
2023/01/17 03:47:55;;;;;;;3.47;0.50;;;3.30;99.90;;;;;;5052453;28;20040;-68
2023/01/17 03:50:21;;;;;;;1.77;0.40;;;3.30;99.90;;;;;;5043718;28;20124;-68
2023/01/17 03:52:46;;;;;;;2.47;0.47;;;3.30;99.90;;;;;;5047282;28;20514;-68
2023/01/17 03:55:12;;;;;;;4.00;0.30;;;3.30;99.90;;;;;;5046353;28;20073;-68
2023/01/17 03:57:38;;;;;;;2.53;0.30;;;3.30;99.90;;;;;;5033980;28;20045;-68
2023/01/17 04:00:04;;;;;;;2.27;1.33;;;3.30;99.90;;;;;;5041074;28;20037;-68
2023/01/17 04:02:30;;;;;;;2.42;0.40;;;3.30;99.90;;;;;;5052716;28;20032;-69
2023/01/17 04:04:55;;;;;;;2.47;0.40;;;3.20;99.90;;;;;;5048388;28;20087;-68
2023/01/17 04:07:21;;;;;;;9.30;0.70;;;3.20;99.90;;;;;;5022535;28;20400;-68
2023/01/17 04:09:47;;;;;;;3.15;0.63;;;3.10;99.90;;;;;;5043195;28;20094;-70
2023/01/17 04:12:13;;;;;;;2.17;0.37;;;3.10;99.90;;;;;;5047805;28;20049;-68
2023/01/17 04:14:39;;;;;;;2.23;0.10;;;3.10;99.90;;;;;;5041472;28;20568;-68
2023/01/17 04:17:10;;;;;;;7.03;0.47;;;3.00;99.90;;;;;;5042135;28;20119;-68
2023/01/17 04:19:36;;;;;;;1.30;0.20;;;2.90;99.90;;;;;;5044845;28;20048;-68
2023/01/17 04:22:02;;;;;;;2.03;0.30;;;3.00;99.90;;;;;;5045836;28;20245;-67
2023/01/17 04:24:27;;;;;;;0.90;0.17;;;3.00;99.90;;;;;;5047275;28;20402;-68
2023/01/17 04:26:53;;;;;;;1.33;0.20;;;2.90;99.90;;;;;;5051118;28;20036;-68
2023/01/17 04:29:18;;;;;;;1.07;0.10;;;3.00;99.90;;;;;;5038103;28;20131;-67
2023/01/17 04:31:46;;;;;;;0.57;0.20;;;2.90;99.90;;;;;;5043566;28;20040;-68
2023/01/17 04:34:12;;;;;;;0.90;0.17;;;2.80;99.90;;;;;;5053279;28;20041;-68
2023/01/17 04:36:37;;;;;;;0.37;0.10;;;2.80;99.90;;;;;;5045359;28;20059;-68
2023/01/17 04:39:03;;;;;;;3.03;0.30;;;2.70;99.90;;;;;;5036447;28;20634;-68
2023/01/17 04:41:29;;;;;;;0.47;0.10;;;2.60;99.90;;;;;;5042217;28;20208;-68
2023/01/17 04:43:54;;;;;;;0.87;0.13;;;2.60;99.90;;;;;;5050407;28;20048;-67
2023/01/17 04:46:20;;;;;;;1.70;0.33;;;2.60;99.90;;;;;;5043138;28;20033;-66
2023/01/17 04:48:46;;;;;;;7.90;0.30;;;2.50;99.90;;;;;;5044950;28;20119;-66
2023/01/17 04:51:11;;;;;;;0.80;0.17;;;2.50;99.90;;;;;;5040706;28;20478;-66
2023/01/17 04:53:37;;;;;;;2.57;0.43;;;2.60;99.90;;;;;;5049796;28;20029;-66
2023/01/17 04:56:04;;;;;;;2.37;0.60;;;2.50;99.90;;;;;;5043492;28;20186;-66
2023/01/17 04:58:30;;;;;;;3.45;0.32;;;2.50;99.90;;;;;;5044402;28;20452;-66
2023/01/17 05:01:00;;;;;;;1.42;0.10;;;2.50;99.90;;;;;;5034564;28;20041;-66
2023/01/17 05:03:26;;;;;;;1.83;0.35;;;2.50;99.90;;;;;;5050689;28;20090;-66
2023/01/17 05:05:51;;;;;;;3.00;0.37;;;2.50;99.90;;;;;;5049439;28;20044;-66
2023/01/17 05:08:17;;;;;;;2.27;0.43;;;2.50;99.90;;;;;;5047593;28;20514;-66
2023/01/17 05:10:45;;;;;;;6.57;0.53;;;2.50;99.90;;;;;;5043727;28;20040;-66
2023/01/17 05:13:11;;;;;;;4.65;0.60;;;2.50;99.90;;;;;;5046291;28;20041;-66
2023/01/17 05:15:37;;;;;;;1.95;0.50;;;2.50;99.90;;;;;;5035822;28;20379;-66
2023/01/17 05:18:07;;;;;;;2.65;0.60;;;2.50;99.90;;;;;;5041797;28;20401;-66
2023/01/17 05:20:34;;;;;;;1.27;0.52;;;2.50;99.90;;;;;;5019798;28;20380;-66
2023/01/17 05:23:00;;;;;;;5.10;0.80;;;2.40;99.90;;;;;;5040588;28;20036;-66
2023/01/17 05:25:30;;;;;;;5.38;0.90;;;2.40;99.90;;;;;;5042065;28;20102;-66
2023/01/17 05:27:58;;;;;;;3.35;0.93;;;2.40;99.90;;;;;;5042410;28;20044;-66
2023/01/17 05:30:25;;;;;;;3.55;0.60;;;2.40;99.90;;;;;;5045537;28;20036;-66
2023/01/17 05:32:52;;;;;;;2.80;1.23;;;2.30;99.90;;;;;;5035914;28;20051;-66
2023/01/17 05:35:24;;;;;;;1.75;0.70;;;2.30;99.90;;;;;;5053977;28;20041;-66
2023/01/17 05:37:50;;;;;;;3.25;0.52;;;2.20;99.90;;;;;;5048092;28;20358;-66
2023/01/17 05:40:21;;;;;;;7.47;0.70;;;2.20;99.90;;;;;;5053913;28;20036;-66
2023/01/17 05:42:48;;;;;;;4.53;0.57;;;2.10;99.90;;;;;;5035769;28;20630;-66
2023/01/17 05:45:15;;;;;;;0.82;0.20;;;2.10;99.90;;;;;;5032390;28;20041;-67
2023/01/17 05:47:52;;;;;;;2.95;0.60;;;2.00;99.90;;;;;;5045009;28;20055;-66
2023/01/17 05:50:29;;;;;;;2.13;0.50;;;2.00;99.90;;;;;;5049807;28;20095;-66
2023/01/17 05:52:58;;;;;;;4.03;0.47;;;1.90;99.90;;;;;;5055838;28;20036;-66
2023/01/17 05:55:25;;;;;;;4.93;0.50;;;1.90;99.90;;;;;;5056928;28;20127;-66
2023/01/17 05:57:52;;;;;;;3.00;0.57;;;1.90;99.90;;;;;;5034673;28;20475;-66
2023/01/17 06:00:19;;;;;;;1.65;0.40;;;1.80;99.90;;;;;;5041079;28;20044;-66
2023/01/17 06:02:45;;;;;;;8.18;0.65;;;1.80;99.90;;;;;;5044915;28;20048;-66
2023/01/17 06:05:12;;;;;;;0.55;0.20;;;1.80;99.90;;;;;;5054719;28;20128;-66
2023/01/17 06:07:38;;;;;;;2.75;0.30;;;1.80;99.90;;;;;;5040385;28;20052;-66
2023/01/17 06:10:04;;;;;;;9.53;0.50;;;1.80;99.90;;;;;;5052946;28;20128;-66
2023/01/17 06:12:31;;;;;;;3.47;0.68;;;1.80;99.90;;;;;;5052842;28;20049;-66
2023/01/17 06:14:56;;;;;;;2.55;0.40;;;1.80;99.90;;;;;;5044804;28;20360;-66
2023/01/17 06:17:22;;;;;;;4.37;0.77;;;1.70;99.90;;;;;;5040537;28;20036;-66
2023/01/17 06:19:48;;;;;;;3.07;0.57;;;1.70;99.90;;;;;;5049585;28;20048;-66
2023/01/17 06:22:13;;;;;;;0.90;0.47;;;1.70;99.90;;;;;;5046879;28;20083;-66
2023/01/17 06:24:39;;;;;;;3.93;0.80;;;1.70;99.90;;;;;;5044493;28;20045;-66
2023/01/17 06:27:07;;;;;;;2.13;0.47;;;1.70;99.90;;;;;;5043678;28;20386;-66
2023/01/17 06:29:32;;;;;;;1.98;0.63;;;1.80;99.90;;;;;;5050403;28;20082;-65
2023/01/17 06:31:58;;;;;;;2.10;0.67;;;1.80;99.90;;;;;;5047818;28;20033;-66
2023/01/17 06:34:24;;;;;;;4.53;1.10;;;1.80;99.90;;;;;;5045767;28;20135;-66
2023/01/17 06:36:49;;;;;;;1.73;0.60;;;1.80;99.90;;;;;;5052427;28;20091;-66
2023/01/17 06:39:15;;;;;;;2.50;0.80;;;1.90;99.90;;;;;;5042794;28;20546;-66
2023/01/17 06:41:41;;;;;;;2.37;0.30;;;1.90;99.90;;;;;;5047304;28;20045;-65
2023/01/17 06:44:08;;;;;;;;;;;1.90;99.90;;;;;;5063342;23;20123;-69
2023/01/17 06:46:34;;;;;;;3.60;0.40;;;1.90;99.90;;;;;;5049746;28;19968;-72
2023/01/17 06:48:59;;;;;;;3.60;0.40;;;1.90;99.90;;;;;;5052027;28;20088;-71
2023/01/17 06:51:26;;;;;;;1.43;0.33;;;1.90;99.90;;;;;;5044440;28;20036;-69
2023/01/17 06:53:52;;;;;;;1.27;0.43;;;1.90;99.90;;;;;;5046765;28;20083;-69
2023/01/17 06:56:18;;;;;;;2.75;0.63;;;1.90;99.90;;;;;;5046729;28;20083;-69
2023/01/17 06:58:49;;;;;;;0.30;0.20;;;1.90;99.90;;;;;;5044464;28;20041;-69
2023/01/17 07:01:15;;;;;;;5.40;0.90;;;1.80;99.90;;;;;;5039809;28;20057;-69
2023/01/17 07:03:40;;;;;;;1.85;0.70;;;1.80;99.90;;;;;;5047375;28;20124;-69
2023/01/17 07:06:08;;;;;;;4.23;0.80;;;1.90;99.90;;;;;;5051445;28;20109;-69
2023/01/17 07:08:34;;;;;;;5.50;1.42;;;1.90;99.90;;;;;;5047342;28;20071;-69
2023/01/17 07:11:03;;;;;;;2.65;0.63;;;1.90;99.90;;;;;;5040026;28;20033;-69
2023/01/17 07:13:29;;;;;;;2.97;0.60;;;1.90;99.90;;;;;;5041491;28;20167;-69
2023/01/17 07:15:55;;;;;;;2.22;0.40;;;1.90;99.90;;;;;;5058740;28;20048;-70
2023/01/17 07:18:24;;;;;;;2.50;0.52;;;2.00;99.90;;;;;;5038867;28;20139;-69
2023/01/17 07:20:49;;;;;;;1.20;0.50;;;2.00;99.90;;;;;;5039248;28;20044;-69
2023/01/17 07:23:16;;;;;;;2.20;0.97;;;2.00;99.90;;;;;;5047027;28;20036;-69
2023/01/17 07:25:41;;;;;;;4.65;0.50;;;2.10;99.90;;;;;;5050398;28;20138;-69
2023/01/17 07:28:07;;;;;;;2.57;0.90;;;2.10;99.90;;;;;;5042474;28;20522;-69
2023/01/17 07:30:34;;;;;;;9.75;1.45;;;2.10;99.90;;;;;;5040952;28;20128;-69
2023/01/17 07:33:00;;;;;;;2.20;0.57;;;2.20;99.90;;;;;;5050178;28;20051;-69
2023/01/17 07:35:26;;;;;;;2.80;0.82;;;2.20;99.90;;;;;;5038984;28;20033;-68
2023/01/17 07:37:52;;;;;;;3.17;1.05;;;2.20;99.90;;;;;;5039419;28;20071;-69
2023/01/17 07:40:19;;;;;;;2.72;0.77;;;2.20;99.90;;;;;;5039959;28;20071;-69
2023/01/17 07:42:45;;;;;;;;;;;2.20;99.90;;;;;;5045302;28;20449;-69
2023/01/17 07:45:12;;;;;;;1.88;0.80;;;2.30;99.90;;;;;;5043310;28;19920;-69
2023/01/17 07:47:38;;;;;;;5.13;0.80;;;2.20;99.90;;;;;;5040988;28;20045;-69
2023/01/17 07:50:05;;;;;;;2.97;0.50;;;2.20;99.90;;;;;;5040308;28;20578;-69
2023/01/17 07:52:31;;;;;;;7.20;0.98;;;2.20;99.90;;;;;;5041146;28;20509;-69
2023/01/17 07:54:56;;;;;;;1.53;0.40;;;2.20;99.90;;;;;;5046443;28;20132;-69
2023/01/17 07:57:22;;;;;;;1.47;0.30;;;2.20;99.90;;;;;;5039583;28;20521;-69
2023/01/17 07:59:51;;;;;;;0.85;0.20;;;2.20;99.90;;;;;;5043629;28;20128;-69
2023/01/17 08:02:22;;;;;;;4.00;0.63;;;2.10;99.90;;;;;;5041135;28;20049;-69
2023/01/17 08:04:48;;;;;;;0.50;0.30;;;2.10;99.90;;;;;;5049165;28;20092;-69
2023/01/17 08:07:14;;;;;;;5.32;0.50;;;2.10;99.90;;;;;;5052389;28;20533;-69
2023/01/17 08:09:41;;;;;;;1.67;0.40;;;2.00;99.90;;;;;;5041438;28;20510;-69
2023/01/17 08:12:07;;;;;;;;;;;2.00;99.90;;;;;;5049513;28;20044;-69
2023/01/17 08:14:32;;;;;;;1.48;0.40;;;2.00;99.90;;;;;;5040390;28;19924;-69
2023/01/17 08:17:14;;;;;;;1.70;0.43;;;1.90;99.90;;;;;;5045180;28;20411;-69
2023/01/17 08:19:40;;;;;;;0.85;0.32;;;1.90;99.90;;;;;;5046211;28;20049;-69
2023/01/17 08:22:06;;;;;;;2.10;0.30;;;1.90;99.90;;;;;;5048951;28;20122;-69
2023/01/17 08:24:32;;;;;;;1.65;0.40;;;1.80;99.90;;;;;;5045628;28;20053;-69
2023/01/17 08:26:58;;;;;;;2.50;0.90;;;1.80;99.90;;;;;;5051702;28;20055;-69
2023/01/17 08:29:24;;;;;;;2.70;0.60;;;1.80;99.90;;;;;;5044410;28;20335;-69
2023/01/17 08:31:49;;;;;;;3.67;0.40;;;1.80;99.90;;;;;;5044448;28;20044;-69
2023/01/17 08:34:15;;;;;;;2.20;0.60;;;1.80;99.90;;;;;;5052954;28;20144;-69
2023/01/17 08:36:41;;;;;;;0.80;0.50;;;1.80;99.90;;;;;;5047571;28;20282;-70
2023/01/17 08:39:08;;;;;;;4.47;1.33;;;1.90;99.90;;;;;;5054658;28;20109;-67
2023/01/17 08:41:34;;;;;;;1.67;0.52;;;1.90;99.90;;;;;;5035920;28;20173;-68
2023/01/17 08:44:01;;;;;;;0.80;0.40;;;1.90;99.90;;;;;;5049843;28;20651;-68
2023/01/17 08:46:27;;;;;;;4.70;0.80;;;1.90;99.90;;;;;;5050195;28;20040;-68
2023/01/17 08:49:01;;;;;;;5.60;0.50;;;2.00;99.90;;;;;;5046775;28;20067;-68
2023/01/17 08:51:27;;;;;;;1.35;0.47;;;2.00;99.90;;;;;;5033112;28;20535;-68
2023/01/17 08:53:54;;;;;;;0.50;0.17;;;2.00;99.90;;;;;;5037003;28;20548;-68
2023/01/17 08:56:20;;;;;;;1.20;0.28;;;2.10;99.90;;;;;;5051020;28;20115;-68
2023/01/17 08:58:46;;;;;;;1.67;0.40;;;2.10;99.90;;;;;;5043144;28;20549;-68
2023/01/17 09:01:12;;;;;;;4.45;0.57;;;2.20;99.90;;;;;;5037656;28;20052;-68
2023/01/17 09:03:38;;;;;;;0.90;0.35;;;2.20;99.90;;;;;;5036561;28;20183;-68
2023/01/17 09:06:06;;;;;;;2.47;0.27;;;2.20;99.90;;;;;;5031051;28;20056;-68
2023/01/17 09:08:32;;;;;;;3.05;0.70;;;2.20;99.90;;;;;;5035136;28;20033;-68
2023/01/17 09:11:05;;;;;;;1.30;0.47;;;2.20;99.90;;;;;;5038131;28;20041;-68
2023/01/17 09:13:31;;;;;;;1.40;0.35;;;2.20;99.90;;;;;;5023306;28;20045;-68
2023/01/17 09:15:58;;;;;;;2.63;0.50;;;2.30;99.90;;;;;;5044126;28;20040;-68
2023/01/17 09:18:24;;;;;;;;;;;2.20;99.90;;;;;;5040491;28;20079;-68
2023/01/17 09:20:53;;;;;;;0.57;0.40;;;2.30;99.90;;;;;;5044637;28;20061;-68
2023/01/17 09:23:22;;;;;;;2.08;0.75;;;2.30;99.90;;;;;;5039392;28;20033;-68
2023/01/17 09:25:55;;;;;;;4.50;0.50;;;2.40;99.90;;;;;;5031765;28;20048;-68
2023/01/17 09:28:22;;;;;;;0.88;0.45;;;2.50;99.90;;;;;;5032305;28;20067;-68
2023/01/17 09:30:48;;;;;;;3.92;0.50;;;2.50;99.90;;;;;;5043965;28;20044;-68
2023/01/17 09:33:15;;;;;;;1.33;0.40;;;2.50;99.90;;;;;;5027683;28;20049;-68
2023/01/17 09:35:40;;;;;;;;;;;2.60;99.90;;;;;;5039071;28;20037;-68
2023/01/17 09:38:06;;;;;;;3.25;0.80;;;2.60;99.90;;;;;;5040425;28;20242;-68
2023/01/17 09:40:32;;;;;;;2.25;0.65;;;2.70;99.90;;;;;;5031275;28;20052;-68
2023/01/17 09:43:04;;;;;;;2.50;0.97;;;2.80;99.90;;;;;;5042503;28;20382;-68
2023/01/17 09:45:32;;;;;;;2.05;0.60;;;2.90;99.90;;;;;;5050176;28;20067;-68
2023/01/17 09:48:00;;;;;;;4.38;1.30;;;2.90;99.90;;;;;;5034097;28;20045;-68
2023/01/17 09:50:44;;;;;;;3.85;1.10;;;3.00;99.90;;;;;;5051448;28;20050;-68
2023/01/17 09:53:20;;;;;;;3.95;1.45;;;3.10;99.90;;;;;;5045272;28;20072;-68
2023/01/17 09:56:02;;;;;;;3.22;0.70;;;3.10;99.90;;;;;;5032896;28;20391;-69
2023/01/17 09:58:46;;;;;;;3.97;0.77;;;3.10;99.90;;;;;;5034125;28;20397;-67
2023/01/17 10:01:33;;;;;;;3.25;1.23;;;3.20;99.90;;;;;;5017326;28;20476;-68
2023/01/17 10:04:26;;;;;;;2.95;0.55;;;3.30;99.90;;;;;;5038869;28;20042;-68
2023/01/17 10:07:11;;;;;;;2.53;0.50;;;3.30;99.90;;;;;;5038871;28;20310;-67
2023/01/17 10:09:39;;;;;;;2.50;0.70;;;3.30;99.90;;;;;;5037879;28;20048;-67
2023/01/17 10:12:49;;;;;;;3.28;0.73;;;3.40;99.90;;;;;;5044475;28;20561;-68
2023/01/17 10:15:48;;;;;;;0.85;0.65;;;3.50;99.90;;;;;;5027883;28;20045;-68
2023/01/17 10:18:17;;;;;;;3.05;0.68;;;3.60;99.90;;;;;;5038288;28;20041;-67
2023/01/17 10:21:14;;;;;;;0.85;0.45;;;3.60;99.90;;;;;;5046979;28;20036;-67
2023/01/17 10:23:58;;;;;;;4.77;0.70;;;3.70;99.90;;;;;;5037317;28;20451;-67
2023/01/17 10:26:24;;;;;;;2.08;0.50;;;3.70;99.90;;;;;;5042076;28;20127;-67
2023/01/17 10:28:59;;;;;;;3.10;0.50;;;3.80;99.90;;;;;;5046563;28;20045;-68
2023/01/17 10:31:40;;;;;;;4.85;0.57;;;3.90;99.90;;;;;;5037775;28;20048;-67
2023/01/17 10:34:17;;;;;;;0.57;0.30;;;3.90;99.90;;;;;;5040807;28;20528;-67
2023/01/17 10:36:47;;;;;;;2.65;0.47;;;4.00;99.90;;;;;;5038861;28;20135;-67
2023/01/17 10:39:22;;;;;;;4.10;0.57;;;4.00;99.90;;;;;;5041081;28;20578;-68
2023/01/17 10:41:54;;;;;;;4.68;0.57;;;4.10;99.90;;;;;;5043459;28;20040;-68
2023/01/17 10:44:44;;;;;;;2.55;0.40;;;4.10;99.90;;;;;;5038910;28;20302;-68
2023/01/17 10:47:20;;;;;;;3.08;0.60;;;4.00;99.90;;;;;;5034053;28;20110;-68
2023/01/17 10:49:50;;;;;;;2.45;0.52;;;4.00;99.90;;;;;;5040709;28;20056;-67
2023/01/17 10:52:55;;;;;;;4.20;0.50;;;4.00;99.90;;;;;;5041887;28;20054;-67
2023/01/17 10:55:23;;;;;;;4.55;1.02;;;4.00;99.90;;;;;;5036660;28;20047;-67
2023/01/17 10:57:51;;;;;;;2.00;0.50;;;4.20;99.90;;;;;;5049085;28;20343;-67
2023/01/17 11:00:32;;;;;;;4.63;0.60;;;4.30;99.90;;;;;;5045549;28;20061;-68
2023/01/17 11:03:00;;;;;;;3.33;0.70;;;4.30;99.90;;;;;;5030851;28;20411;-68
2023/01/17 11:05:28;;;;;;;1.75;0.50;;;4.40;99.90;;;;;;5036624;28;20079;-67
2023/01/17 11:08:06;;;;;;;2.65;0.93;;;4.30;99.90;;;;;;5036697;28;20036;-67
2023/01/17 11:10:56;;;;;;;1.73;0.30;;;4.30;99.90;;;;;;5045102;28;20238;-67
2023/01/17 11:13:29;;;;;;;4.07;0.85;;;4.40;99.90;;;;;;5039545;28;20710;-68
2023/01/17 11:16:02;;;;;;;6.72;0.70;;;4.40;99.90;;;;;;5045319;28;20116;-68
2023/01/17 11:18:32;;;;;;;5.53;0.90;;;4.50;99.90;;;;;;5043899;28;20029;-69
2023/01/17 11:21:13;;;;;;;1.45;0.30;;;4.50;99.90;;;;;;5042063;28;20498;-69
2023/01/17 11:23:42;;;;;;;2.47;1.40;;;4.60;99.90;;;;;;5050083;28;20063;-69
2023/01/17 11:26:12;;;;;;;6.75;0.52;;;4.70;99.90;;;;;;5040069;28;20116;-69
2023/01/17 11:28:39;;;;;;;1.13;0.40;;;4.80;99.90;;;;;;5050591;28;20576;-69
2023/01/17 11:31:21;;;;;;;3.00;0.63;;;4.90;99.90;;;;;;5029550;28;20124;-69
2023/01/17 11:33:55;;;;;;;3.78;0.60;;;5.10;99.90;;;;;;5055139;28;20265;-69
2023/01/17 11:36:26;;;;;;;2.47;0.38;;;5.20;99.90;;;;;;5056349;28;20086;-67
2023/01/17 11:39:20;;;;;;;0.98;0.40;;;5.40;99.90;;;;;;5058271;28;20033;-68
2023/01/17 11:41:47;;;;;;;0.95;0.30;;;5.50;99.90;;;;;;5036817;28;20079;-66
2023/01/17 11:44:31;;;;;;;2.00;0.63;;;5.60;99.90;;;;;;5045535;28;20462;-68
2023/01/17 11:47:11;;;;;;;4.00;0.30;;;5.60;99.90;;;;;;5035201;28;20049;-66
2023/01/17 11:49:39;;;;;;;0.68;0.30;;;5.70;99.90;;;;;;5039145;28;20042;-66
2023/01/17 11:52:09;;;;;;;1.90;0.30;;;5.70;99.90;;;;;;5042087;28;20140;-66
2023/01/17 11:54:38;;;;;;;4.22;0.32;;;5.70;99.90;;;;;;5043066;28;20116;-66
2023/01/17 11:57:16;;;;;;;5.38;0.50;;;5.60;99.90;;;;;;5043906;28;20384;-68
2023/01/17 11:59:42;;;;;;;1.42;0.60;;;5.60;99.90;;;;;;5044840;28;20033;-68
2023/01/17 12:02:20;;;;;;;;;;;5.70;99.90;;;;;;5042369;28;20084;-68
2023/01/17 12:05:04;;;;;;;3.08;0.50;;;5.70;99.90;;;;;;5038761;28;19943;-68
2023/01/17 12:08:07;;;;;;;2.90;0.40;;;5.70;99.90;;;;;;5043441;28;20041;-68
2023/01/17 12:10:46;;;;;;;2.30;1.17;;;5.70;99.90;;;;;;5035664;28;20053;-68
2023/01/17 12:16:29;;;;;;;2.35;0.40;;;5.80;99.90;;;;;;5041129;28;20277;-68
2023/01/17 12:19:20;;;;;;;0.80;0.30;;;5.90;99.90;;;;;;5048036;28;20258;-68
2023/01/17 12:21:48;;;;;;;4.95;0.60;;;5.90;99.90;;;;;;5046294;28;20087;-68
2023/01/17 12:24:20;;;;;;;4.18;0.50;;;5.90;99.90;;;;;;5037201;28;20391;-68
2023/01/17 12:27:01;;;;;;;3.33;0.38;;;6.00;99.90;;;;;;5040678;28;20044;-68
2023/01/17 12:29:57;;;;;;;4.30;0.57;;;6.00;99.90;;;;;;5041836;28;20047;-68
2023/01/17 12:32:32;;;;;;;3.50;0.40;;;6.10;99.90;;;;;;5038583;28;20067;-68
2023/01/17 12:35:37;;;;;;;1.25;0.47;;;6.10;99.90;;;;;;5045635;28;20041;-69
2023/01/17 12:38:18;;;;;;;4.85;1.13;;;6.20;99.90;;;;;;5029559;28;20371;-69
2023/01/17 12:41:13;;;;;;;3.08;0.50;;;6.10;99.90;;;;;;5032355;28;20041;-69
2023/01/17 12:43:40;;;;;;;2.25;0.60;;;6.20;99.90;;;;;;5036867;23;20068;-68
2023/01/17 12:46:25;;;;;;;3.22;0.60;;;6.20;99.90;;;;;;5044132;28;20403;-67
2023/01/17 12:49:14;;;;;;;2.58;0.40;;;6.20;99.90;;;;;;5036280;28;20360;-68
2023/01/17 12:51:43;;;;;;;1.77;0.30;;;6.30;99.90;;;;;;5052282;28;20069;-67
2023/01/17 12:54:17;;;;;;;3.00;0.75;;;6.30;99.90;;;;;;5041320;28;20045;-67
2023/01/17 12:56:51;;;;;;;2.00;0.20;;;6.30;99.90;;;;;;5035976;28;20128;-70
2023/01/17 12:59:24;;;;;;;0.43;0.22;;;6.30;99.90;;;;;;5019910;28;20042;-68
2023/01/17 13:01:56;;;;;;;2.13;0.50;;;6.20;99.90;;;;;;5041286;28;20025;-67
2023/01/17 13:04:45;;;;;;;3.80;0.95;;;6.20;99.90;;;;;;5043399;28;20098;-68
2023/01/17 13:07:17;;;;;;;2.75;0.28;;;6.20;99.90;;;;;;5038042;28;20060;-68
2023/01/17 13:09:50;;;;;;;0.88;0.38;;;6.20;99.90;;;;;;5039317;28;20110;-67
2023/01/17 13:12:18;;;;;;;4.85;0.60;;;6.20;99.90;;;;;;5041003;28;20040;-68
2023/01/17 13:14:45;;;;;;;3.63;0.60;;;6.20;99.90;;;;;;5044957;28;20041;-67
2023/01/17 13:17:33;;;;;;;;;;;6.10;99.90;;;;;;5041181;28;20036;-68
2023/01/17 13:20:21;;;;;;;1.20;0.43;;;6.00;99.90;;;;;;5040051;28;20242;-67
2023/01/17 13:22:48;;;;;;;1.55;0.30;;;5.90;99.90;;;;;;5044661;28;20172;-67
2023/01/17 13:25:17;;;;;;;1.10;0.22;;;5.90;99.90;;;;;;5038829;28;20449;-68
2023/01/17 13:28:02;;;;;;;1.85;0.45;;;5.80;99.90;;;;;;5036066;28;20114;-68
2023/01/17 13:30:42;;;;;;;1.10;0.30;;;5.80;99.90;;;;;;5044437;28;20137;-68
2023/01/17 13:33:45;;;;;;;1.25;0.30;;;5.70;99.90;;;;;;5043276;28;20056;-67
2023/01/17 13:36:46;;;;;;;3.05;0.52;;;5.70;99.90;;;;;;5041587;28;20056;-67
2023/01/17 13:39:48;;;;;;;1.38;0.68;;;5.70;99.90;;;;;;5042938;28;20060;-68
2023/01/17 13:42:41;;;;;;;1.83;0.80;;;5.70;99.90;;;;;;5038468;28;20124;-67
2023/01/17 13:45:16;;;;;;;0.40;0.10;;;5.70;99.90;;;;;;5034734;28;20298;-67
2023/01/17 13:47:42;;;;;;;0.82;0.30;;;5.70;99.90;;;;;;5042709;28;20251;-67
2023/01/17 13:50:37;;;;;;;2.10;0.40;;;5.70;99.90;;;;;;5040866;28;20410;-68
2023/01/17 13:53:27;;;;;;;1.23;0.40;;;5.60;99.90;;;;;;5037168;28;20057;-67
2023/01/17 13:56:17;;;;;;;0.57;0.30;;;5.60;99.90;;;;;;5043588;28;20371;-67
2023/01/17 13:58:57;;;;;;;1.30;0.30;;;5.60;99.90;;;;;;5036490;28;20052;-67
2023/01/17 14:01:22;;;;;;;0.63;0.20;;;5.50;99.90;;;;;;5034131;28;20034;-67
2023/01/17 14:03:48;;;;;;;1.03;0.20;;;5.50;99.90;;;;;;5039341;28;20060;-67
2023/01/17 14:06:33;;;;;;;0.87;0.27;;;5.40;99.90;;;;;;5044998;28;20033;-67
2023/01/17 14:09:04;;;;;;;1.15;0.22;;;5.40;99.90;;;;;;5035719;28;20132;-67
2023/01/17 14:11:49;;;;;;;1.17;0.47;;;5.30;99.90;;;;;;5042985;28;20041;-68
2023/01/17 14:14:39;;;;;;;0.88;0.30;;;5.10;99.90;;;;;;5046824;28;20037;-68
2023/01/17 14:17:19;;;;;;;0.50;0.20;;;5.00;99.90;;;;;;5048597;28;20037;-67
2023/01/17 14:19:46;;;;;;;5.25;0.28;;;4.90;99.90;;;;;;5046207;28;20113;-67
2023/01/17 14:22:18;;;;;;;1.30;0.20;;;4.80;99.90;;;;;;5050462;28;20041;-68
2023/01/17 14:25:01;;;;;;;1.88;0.45;;;4.70;99.90;;;;;;5053669;28;20433;-67
2023/01/17 14:27:33;;;;;;;3.85;1.05;;;4.70;99.90;;;;;;5031038;28;20059;-68
2023/01/17 14:30:01;;;;;;;3.70;0.43;;;4.50;99.90;;;;;;5044902;28;20032;-68
2023/01/17 14:32:35;;;;;;;1.77;0.40;;;4.50;99.90;;;;;;5042576;28;20045;-68
2023/01/17 14:35:01;;;;;;;1.23;0.40;;;4.50;99.90;;;;;;5045898;28;20538;-68
2023/01/17 14:37:28;;;;;;;;;;;4.40;99.90;;;;;;5051502;28;20384;-68
2023/01/17 14:39:54;;;;;;;3.90;1.05;;;4.40;99.90;;;;;;5021976;28;19932;-67
2023/01/17 14:42:22;;;;;;;3.30;0.95;;;4.30;99.90;;;;;;5046058;28;20032;-67
2023/01/17 14:44:54;;;;;;;1.00;0.25;;;4.30;99.90;;;;;;5047263;28;20055;-67
2023/01/17 14:47:21;;;;;;;3.80;0.63;;;4.30;99.90;;;;;;5037920;28;20049;-67
2023/01/17 14:49:47;;;;;;;2.15;1.10;;;4.30;99.90;;;;;;5037864;28;20037;-67
2023/01/17 14:52:16;;;;;;;8.50;0.70;;;4.30;99.90;;;;;;5045121;28;20181;-68
2023/01/17 14:54:51;;;;;;;1.23;0.43;;;4.30;99.90;;;;;;5040580;28;20856;-68
2023/01/17 14:57:27;;;;;;;2.08;0.47;;;4.30;99.90;;;;;;5033497;28;20049;-68
2023/01/17 15:00:12;;;;;;;1.85;0.35;;;4.30;99.90;;;;;;5035756;28;20037;-68
2023/01/17 15:02:42;;;;;;;1.23;0.20;;;4.30;99.90;;;;;;5046279;28;20067;-67
2023/01/17 15:05:18;;;;;;;0.68;0.22;;;4.30;99.90;;;;;;5048252;28;20037;-67
2023/01/17 15:07:47;;;;;;;1.52;0.35;;;4.30;99.90;;;;;;5046612;28;20049;-67
2023/01/17 15:10:20;;;;;;;2.38;0.55;;;4.20;99.90;;;;;;5048249;28;20063;-68
2023/01/17 15:12:46;;;;;;;1.40;0.38;;;4.20;99.90;;;;;;5039552;28;20466;-68
2023/01/17 15:15:38;;;;;;;0.90;0.20;;;4.10;99.90;;;;;;5045685;28;20120;-68
2023/01/17 15:18:28;;;;;;;1.38;0.40;;;4.10;99.90;;;;;;5036372;28;20175;-67
2023/01/17 15:20:58;;;;;;;1.75;0.50;;;4.00;99.90;;;;;;5042043;28;20056;-67